createdAt,value
2022-12-15T00:02:11.635Z,11.07
2022-12-15T00:04:56.899Z,12.03
2022-12-15T00:07:41.919Z,13.40
2022-12-15T00:10:26.879Z,11.90
2022-12-15T00:13:11.724Z,14.20
2022-12-15T00:15:56.739Z,11.30
2022-12-15T00:18:43.035Z,11.60
2022-12-15T00:21:28.019Z,12.67
2022-12-15T00:24:12.799Z,11.40
2022-12-15T00:26:57.640Z,11.60
2022-12-15T00:29:42.843Z,12.67
2022-12-15T00:32:27.663Z,11.50
2022-12-15T00:35:13.790Z,12.33
2022-12-15T00:37:58.836Z,10.90
2022-12-15T00:40:26.303Z,11.70
2022-12-15T00:42:53.780Z,12.30
2022-12-15T00:45:21.382Z,11.43
2022-12-15T00:47:47.853Z,10.77
2022-12-15T00:50:34.337Z,11.03
2022-12-15T00:53:19.269Z,11.20
2022-12-15T00:56:03.981Z,10.90
2022-12-15T00:58:48.836Z,11.07
2022-12-15T01:01:33.857Z,11.33
2022-12-15T01:04:19.154Z,9.40
2022-12-15T01:07:05.650Z,9.70
2022-12-15T01:09:50.466Z,9.63
2022-12-15T01:12:35.218Z,9.47
2022-12-15T01:15:20.146Z,9.43
2022-12-15T01:18:04.927Z,9.97
2022-12-15T01:20:34.538Z,9.33
2022-12-15T01:23:03.423Z,8.97
2022-12-15T01:25:30.844Z,8.63
2022-12-15T01:27:58.276Z,8.53
2022-12-15T01:30:26.862Z,8.17
2022-12-15T01:32:54.386Z,8.00
2022-12-15T01:35:21.987Z,7.93
2022-12-15T01:37:49.808Z,6.90
2022-12-15T01:40:37.314Z,6.83
2022-12-15T01:43:04.861Z,7.13
2022-12-15T01:45:42.258Z,7.10
2022-12-15T01:48:10.704Z,20.63
2022-12-15T01:50:40.455Z,7.70
2022-12-15T01:53:08.002Z,23.53
2022-12-15T01:55:37.697Z,15.97
2022-12-15T01:58:07.729Z,6.53
2022-12-15T02:00:35.388Z,18.03
2022-12-15T02:03:03.333Z,6.77
2022-12-15T02:05:31.747Z,9.00
2022-12-15T02:08:00.336Z,16.53
2022-12-15T02:10:30.005Z,6.60
2022-12-15T02:13:03.990Z,10.37
2022-12-15T02:15:34.814Z,7.50
2022-12-15T02:18:05.845Z,14.00
2022-12-15T02:20:43.844Z,9.40
2022-12-15T02:23:29.486Z,20.60
2022-12-15T02:26:12.106Z,14.63
2022-12-15T02:28:49.295Z,7.30
2022-12-15T02:31:34.557Z,7.30
2022-12-15T02:34:06.722Z,7.53
2022-12-15T02:36:36.653Z,7.30
2022-12-15T02:39:05.168Z,7.33
2022-12-15T02:41:34.708Z,7.60
2022-12-15T02:44:02.956Z,7.20
2022-12-15T02:46:36.455Z,7.77
2022-12-15T02:49:08.257Z,7.40
2022-12-15T02:51:49.391Z,7.37
2022-12-15T02:54:29.782Z,7.50
2022-12-15T02:57:03.904Z,6.67
2022-12-15T02:59:35.307Z,6.83
2022-12-15T03:02:06.884Z,7.70
2022-12-15T03:04:34.758Z,7.23
2022-12-15T03:07:04.554Z,7.20
2022-12-15T03:09:32.548Z,6.63
2022-12-15T03:12:00.437Z,6.70
2022-12-15T03:14:28.202Z,6.73
2022-12-15T03:16:56.043Z,7.03
2022-12-15T03:19:25.833Z,7.80
2022-12-15T03:21:53.446Z,7.20
2022-12-15T03:24:20.917Z,8.63
2022-12-15T03:26:49.959Z,8.60
2022-12-15T03:29:17.961Z,11.03
2022-12-15T03:31:45.883Z,9.60
2022-12-15T03:34:17.353Z,8.20
2022-12-15T03:36:46.220Z,8.13
2022-12-15T03:39:13.710Z,18.60
2022-12-15T03:41:41.573Z,17.33
2022-12-15T03:44:09.129Z,9.53
2022-12-15T03:46:36.564Z,11.33
2022-12-15T03:49:04.481Z,17.20
2022-12-15T03:51:31.981Z,29.07
2022-12-15T03:54:00.797Z,20.23
2022-12-15T03:56:28.265Z,22.07
2022-12-15T03:58:55.724Z,33.40
2022-12-15T04:01:27.180Z,18.37
2022-12-15T04:04:00.242Z,12.50
2022-12-15T04:06:28.539Z,11.33
2022-12-15T04:08:55.991Z,11.90
2022-12-15T04:11:24.813Z,15.93
2022-12-15T04:13:52.279Z,10.87
2022-12-15T04:16:20.492Z,12.73
2022-12-15T04:19:08.070Z,18.17
2022-12-15T04:21:34.609Z,16.13
2022-12-15T04:24:19.513Z,10.43
2022-12-15T04:27:05.558Z,9.93
2022-12-15T04:29:50.400Z,9.00
2022-12-15T04:32:35.128Z,8.53
2022-12-15T04:35:19.987Z,8.27
2022-12-15T04:38:04.786Z,8.87
2022-12-15T04:40:49.649Z,8.53
2022-12-15T04:43:35.895Z,7.67
2022-12-15T04:46:20.719Z,8.10
2022-12-15T04:49:05.927Z,8.70
2022-12-15T04:51:51.717Z,7.70
2022-12-15T04:54:36.405Z,8.20
2022-12-15T04:57:21.119Z,7.93
2022-12-15T05:00:07.438Z,10.97
2022-12-15T05:02:52.435Z,9.20
2022-12-15T05:05:37.196Z,7.60
2022-12-15T05:08:22.137Z,8.00
2022-12-15T05:11:06.980Z,8.30
2022-12-15T05:13:51.772Z,11.43
2022-12-15T05:16:37.962Z,10.73
2022-12-15T05:19:23.269Z,11.33
2022-12-15T05:22:08.138Z,8.03
2022-12-15T05:24:52.783Z,8.07
2022-12-15T05:27:37.693Z,7.67
2022-12-15T05:30:22.941Z,8.70
2022-12-15T05:32:51.738Z,7.67
2022-12-15T05:35:19.219Z,8.50
2022-12-15T05:37:46.711Z,8.10
2022-12-15T05:40:14.308Z,10.20
2022-12-15T05:42:41.746Z,8.80
2022-12-15T05:45:10.279Z,10.03
2022-12-15T05:47:37.741Z,8.70
2022-12-15T05:50:07.225Z,8.60
2022-12-15T05:52:34.658Z,20.33
2022-12-15T05:55:02.107Z,7.53
2022-12-15T05:57:29.559Z,13.20
2022-12-15T05:59:56.994Z,12.20
2022-12-15T06:02:24.503Z,13.23
2022-12-15T06:04:52.065Z,11.37
2022-12-15T06:07:20.905Z,12.23
2022-12-15T06:09:48.339Z,9.87
2022-12-15T06:12:16.471Z,7.43
2022-12-15T06:14:44.274Z,8.93
2022-12-15T06:17:11.683Z,15.50
2022-12-15T06:19:39.111Z,12.27
2022-12-15T06:22:06.571Z,7.80
2022-12-15T06:24:35.572Z,7.27
2022-12-15T06:27:03.097Z,7.13
2022-12-15T06:29:30.662Z,4.70
2022-12-15T06:31:58.131Z,4.97
2022-12-15T06:34:25.693Z,5.13
2022-12-15T06:36:53.152Z,5.00
2022-12-15T06:39:21.396Z,4.40
2022-12-15T06:41:50.228Z,5.17
2022-12-15T06:44:18.061Z,5.20
2022-12-15T06:46:46.439Z,4.60
2022-12-15T06:49:14.389Z,5.10
2022-12-15T06:51:43.941Z,5.33
2022-12-15T06:54:12.038Z,5.00
2022-12-15T06:56:39.979Z,5.23
2022-12-15T06:59:09.198Z,5.03
2022-12-15T07:01:36.781Z,4.40
2022-12-15T07:04:05.612Z,4.87
2022-12-15T07:06:36.220Z,4.30
2022-12-15T07:09:03.900Z,4.57
2022-12-15T07:11:31.344Z,4.90
2022-12-15T07:13:58.804Z,10.07
2022-12-15T07:16:27.709Z,23.43
2022-12-15T07:18:55.196Z,19.47
2022-12-15T07:21:22.674Z,12.37
2022-12-15T07:23:55.290Z,6.07
2022-12-15T07:26:24.488Z,6.67
2022-12-15T07:28:52.858Z,5.47
2022-12-15T07:31:20.440Z,4.80
2022-12-15T07:33:49.296Z,5.03
2022-12-15T07:36:16.743Z,4.93
2022-12-15T07:38:50.031Z,5.30
2022-12-15T07:41:18.721Z,5.10
2022-12-15T07:43:47.487Z,5.20
2022-12-15T07:46:15.134Z,4.40
2022-12-15T07:48:42.803Z,5.27
2022-12-15T07:51:19.105Z,5.00
2022-12-15T07:53:47.303Z,4.97
2022-12-15T07:56:15.291Z,8.13
2022-12-15T07:58:42.863Z,7.63
2022-12-15T08:01:12.461Z,7.90
2022-12-15T08:03:40.975Z,11.00
2022-12-15T08:06:09.988Z,9.10
2022-12-15T08:08:39.094Z,11.47
2022-12-15T08:11:06.922Z,9.00
2022-12-15T08:16:22.121Z,9.50
2022-12-15T08:18:49.795Z,10.47
2022-12-15T08:21:17.314Z,9.60
2022-12-15T08:23:46.178Z,9.40
2022-12-15T08:26:14.443Z,11.07
2022-12-15T08:28:42.737Z,9.47
2022-12-15T08:31:11.252Z,9.43
2022-12-15T08:33:38.934Z,9.00
2022-12-15T08:36:08.157Z,7.53
2022-12-15T08:38:36.371Z,8.07
2022-12-15T08:41:09.360Z,8.37
2022-12-15T08:43:41.163Z,7.67
2022-12-15T08:46:13.476Z,8.50
2022-12-15T08:48:40.998Z,7.70
2022-12-15T08:51:09.762Z,8.40
2022-12-15T08:53:37.276Z,9.83
2022-12-15T08:56:06.140Z,8.33
2022-12-15T08:58:35.078Z,9.43
2022-12-15T09:01:03.189Z,9.20
2022-12-15T09:03:31.109Z,9.73
2022-12-15T09:06:02.409Z,9.90
2022-12-15T09:08:30.998Z,9.73
2022-12-15T09:10:58.941Z,9.77
2022-12-15T09:13:26.761Z,11.23
2022-12-15T09:16:13.728Z,10.00
2022-12-15T09:18:42.827Z,9.60
2022-12-15T09:21:11.765Z,10.57
2022-12-15T09:23:39.852Z,10.10
2022-12-15T09:26:08.399Z,10.47
2022-12-15T09:28:35.900Z,8.50
2022-12-15T09:31:05.229Z,13.57
2022-12-15T09:33:33.130Z,12.33
2022-12-15T09:36:00.835Z,9.90
2022-12-15T09:38:28.303Z,8.50
2022-12-15T09:40:56.066Z,8.73
2022-12-15T09:43:46.067Z,9.47
2022-12-15T09:46:18.802Z,9.20
2022-12-15T09:48:47.151Z,9.33
2022-12-15T09:51:17.478Z,10.43
2022-12-15T09:53:54.678Z,11.83
2022-12-15T09:56:26.304Z,10.77
2022-12-15T09:58:56.506Z,14.83
2022-12-15T10:01:30.983Z,14.00
2022-12-15T10:04:07.034Z,15.97
2022-12-15T10:06:37.718Z,11.30
2022-12-15T10:09:11.009Z,11.20
2022-12-15T10:11:45.002Z,10.27
2022-12-15T10:14:22.285Z,11.33
2022-12-15T10:16:54.730Z,12.13
2022-12-15T10:19:25.542Z,12.60
2022-12-15T10:21:53.122Z,20.30
2022-12-15T10:24:37.822Z,18.77
2022-12-15T10:27:24.514Z,14.77
2022-12-15T10:29:57.276Z,13.67
2022-12-15T10:32:31.765Z,12.47
2022-12-15T10:34:59.300Z,14.70
2022-12-15T10:37:26.825Z,13.43
2022-12-15T10:39:54.255Z,12.87
2022-12-15T10:42:22.733Z,11.70
2022-12-15T10:44:51.151Z,11.63
2022-12-15T10:47:20.980Z,11.50
2022-12-15T10:49:50.082Z,15.57
2022-12-15T10:52:21.701Z,11.77
2022-12-15T10:54:49.991Z,13.00
2022-12-15T10:57:21.045Z,12.00
2022-12-15T10:59:50.259Z,12.37
2022-12-15T11:02:36.668Z,13.97
2022-12-15T11:05:07.248Z,12.47
2022-12-15T11:07:36.458Z,12.70
2022-12-15T11:10:14.573Z,14.43
2022-12-15T11:12:58.385Z,14.37
2022-12-15T11:15:35.333Z,14.70
2022-12-15T11:18:06.693Z,17.13
2022-12-15T11:20:36.461Z,15.00
2022-12-15T11:23:06.081Z,14.07
2022-12-15T11:25:35.829Z,15.13
2022-12-15T11:28:05.458Z,22.73
2022-12-15T11:30:36.462Z,22.13
2022-12-15T11:33:04.116Z,18.57
2022-12-15T11:35:35.910Z,21.20
2022-12-15T11:38:07.924Z,20.03
2022-12-15T11:40:37.455Z,19.47
2022-12-15T11:43:35.759Z,16.90
2022-12-15T11:46:16.028Z,16.73
2022-12-15T11:48:49.662Z,18.30
2022-12-15T11:51:21.903Z,16.67
2022-12-15T11:53:59.510Z,18.80
2022-12-15T11:56:29.973Z,18.57
2022-12-15T11:59:05.203Z,22.00
2022-12-15T12:01:51.696Z,22.77
2022-12-15T12:04:23.637Z,21.27
2022-12-15T12:06:58.468Z,22.10
2022-12-15T12:09:31.010Z,23.73
2022-12-15T12:12:02.630Z,21.03
2022-12-15T12:14:36.807Z,23.93
2022-12-15T12:17:06.726Z,21.93
2022-12-15T12:19:38.047Z,23.83
2022-12-15T12:22:11.887Z,21.90
2022-12-15T12:24:42.774Z,18.57
2022-12-15T12:27:13.685Z,20.27
2022-12-15T12:29:45.099Z,21.70
2022-12-15T12:32:19.448Z,20.83
2022-12-15T12:34:52.081Z,19.87
2022-12-15T12:37:41.806Z,19.87
2022-12-15T12:40:16.707Z,20.83
2022-12-15T12:42:47.220Z,18.97
2022-12-15T12:45:18.499Z,20.00
2022-12-15T12:47:50.135Z,19.87
2022-12-15T12:50:19.811Z,20.60
2022-12-15T12:52:49.811Z,19.93
2022-12-15T12:55:38.369Z,18.93
2022-12-15T12:58:27.880Z,17.80
2022-12-15T13:01:05.132Z,18.17
2022-12-15T13:03:33.079Z,21.47
2022-12-15T13:06:00.763Z,18.03
2022-12-15T13:08:46.121Z,19.37
2022-12-15T13:11:39.346Z,21.13
2022-12-15T13:14:18.421Z,22.33
2022-12-15T13:17:17.153Z,24.03
2022-12-15T13:19:57.195Z,23.20
2022-12-15T13:22:26.750Z,25.87
2022-12-15T13:24:57.185Z,23.63
2022-12-15T13:27:26.552Z,20.57
2022-12-15T13:30:02.684Z,24.67
2022-12-15T13:32:30.888Z,23.20
2022-12-15T13:34:58.703Z,23.57
2022-12-15T13:37:44.683Z,24.50
2022-12-15T13:40:26.096Z,23.90
2022-12-15T13:42:58.793Z,23.27
2022-12-15T13:45:34.247Z,24.27
2022-12-15T13:48:01.772Z,22.33
2022-12-15T13:50:42.142Z,26.37
2022-12-15T13:53:21.155Z,29.30
2022-12-15T13:55:58.071Z,24.47
2022-12-15T13:58:26.833Z,23.60
2022-12-15T14:00:56.480Z,22.33
2022-12-15T14:03:24.038Z,23.30
2022-12-15T14:05:53.103Z,25.93
2022-12-15T14:08:21.671Z,23.37
2022-12-15T14:10:51.171Z,24.43
2022-12-15T14:13:20.819Z,23.87
2022-12-15T14:15:50.767Z,21.13
2022-12-15T14:18:28.371Z,26.17
2022-12-15T14:20:56.084Z,24.13
2022-12-15T14:23:24.767Z,23.03
2022-12-15T14:25:55.954Z,27.77
2022-12-15T14:28:25.450Z,26.27
2022-12-15T14:30:52.946Z,26.93
2022-12-15T14:33:22.999Z,33.27
2022-12-15T14:35:56.669Z,26.43
2022-12-15T14:38:26.880Z,26.37
2022-12-15T14:40:57.471Z,28.13
2022-12-15T14:43:26.307Z,27.43
2022-12-15T14:45:55.474Z,27.10
2022-12-15T14:48:42.452Z,26.80
2022-12-15T14:51:12.785Z,29.53
2022-12-15T14:53:41.568Z,30.67
2022-12-15T14:56:25.672Z,35.00
2022-12-15T14:58:59.623Z,41.47
2022-12-15T15:01:28.311Z,33.73
2022-12-15T15:03:59.733Z,44.03
2022-12-15T15:06:38.971Z,36.23
2022-12-15T15:09:17.780Z,33.17
2022-12-15T15:11:45.487Z,33.93
2022-12-15T15:14:14.569Z,32.33
2022-12-15T15:16:42.550Z,35.87
2022-12-15T15:19:17.680Z,34.13
2022-12-15T15:21:46.765Z,37.70
2022-12-15T15:24:23.090Z,35.93
2022-12-15T15:26:50.589Z,35.57
2022-12-15T15:29:37.634Z,35.37
2022-12-15T15:32:15.857Z,36.77
2022-12-15T15:34:44.829Z,35.67
2022-12-15T15:37:18.337Z,37.17
2022-12-15T15:39:46.379Z,34.97
2022-12-15T15:42:14.049Z,40.00
2022-12-15T15:44:41.492Z,36.37
2022-12-15T15:47:16.961Z,35.53
2022-12-15T15:49:45.146Z,37.77
2022-12-15T15:52:13.907Z,36.63
2022-12-15T15:54:43.545Z,35.13
2022-12-15T15:57:13.089Z,38.67
2022-12-15T15:59:42.258Z,38.23
2022-12-15T16:02:10.675Z,37.03
2022-12-15T16:04:42.095Z,38.43
2022-12-15T16:07:17.259Z,37.37
2022-12-15T16:09:46.058Z,38.67
2022-12-15T16:12:18.163Z,40.43
2022-12-15T16:14:45.888Z,37.93
2022-12-15T16:17:13.790Z,40.97
2022-12-15T16:19:41.210Z,42.10
2022-12-15T16:22:10.229Z,38.77
2022-12-15T16:24:37.737Z,37.73
2022-12-15T16:27:06.585Z,39.43
2022-12-15T16:29:34.039Z,40.33
2022-12-15T16:32:01.541Z,37.47
2022-12-15T16:34:29.037Z,35.03
2022-12-15T16:36:56.489Z,40.00
2022-12-15T16:39:25.311Z,37.20
2022-12-15T16:41:53.677Z,37.77
2022-12-15T16:44:23.103Z,37.97
2022-12-15T16:46:50.678Z,39.00
2022-12-15T16:49:18.209Z,36.13
2022-12-15T16:51:46.682Z,36.23
2022-12-15T16:54:16.916Z,36.63
2022-12-15T16:56:44.347Z,34.90
2022-12-15T16:59:32.488Z,34.97
2022-12-15T17:02:03.184Z,41.90
2022-12-15T17:04:30.822Z,37.50
2022-12-15T17:06:58.313Z,40.07
2022-12-15T17:09:26.523Z,39.60
2022-12-15T17:11:54.217Z,33.60
2022-12-15T17:14:21.717Z,37.07
2022-12-15T17:16:49.154Z,39.30
2022-12-15T17:19:21.296Z,40.33
2022-12-15T17:21:51.772Z,37.90
2022-12-15T17:24:20.135Z,41.37
2022-12-15T17:26:47.978Z,41.10
2022-12-15T17:29:16.737Z,46.87
2022-12-15T17:31:44.323Z,42.90
2022-12-15T17:34:23.045Z,41.67
2022-12-15T17:36:50.473Z,40.43
2022-12-15T17:39:19.371Z,40.80
2022-12-15T17:42:04.355Z,41.77
2022-12-15T17:44:35.042Z,38.90
2022-12-15T17:47:03.680Z,41.17
2022-12-15T17:49:36.130Z,37.27
2022-12-15T17:52:07.030Z,42.70
2022-12-15T17:54:35.523Z,41.67
2022-12-15T17:57:03.053Z,43.00
2022-12-15T17:59:32.138Z,41.40
2022-12-15T18:01:59.775Z,47.43
2022-12-15T18:04:27.388Z,43.20
2022-12-15T18:07:01.586Z,42.07
2022-12-15T18:09:30.557Z,40.07
2022-12-15T18:11:58.254Z,44.97
2022-12-15T18:14:25.774Z,42.77
2022-12-15T18:16:53.245Z,39.57
2022-12-15T18:19:20.730Z,42.53
2022-12-15T18:21:48.223Z,41.33
2022-12-15T18:24:19.229Z,38.97
2022-12-15T18:26:46.737Z,40.77
2022-12-15T18:29:17.485Z,40.83
2022-12-15T18:31:45.560Z,41.30
2022-12-15T18:34:13.587Z,38.50
2022-12-15T18:36:41.083Z,40.77
2022-12-15T18:39:16.493Z,39.97
2022-12-15T18:41:45.409Z,41.47
2022-12-15T18:44:17.107Z,37.70
2022-12-15T18:46:48.129Z,37.23
2022-12-15T18:49:15.774Z,38.43
2022-12-15T18:51:43.325Z,38.17
2022-12-15T18:54:15.801Z,39.03
2022-12-15T18:56:43.353Z,33.87
2022-12-15T18:59:15.611Z,35.60
2022-12-15T19:01:43.744Z,35.70
2022-12-15T19:04:11.476Z,36.23
2022-12-15T19:06:40.462Z,38.13
2022-12-15T19:09:11.519Z,35.50
2022-12-15T19:11:38.946Z,35.23
2022-12-15T19:14:28.477Z,34.77
2022-12-15T19:17:15.579Z,34.87
2022-12-15T19:20:00.443Z,31.83
2022-12-15T19:22:29.475Z,32.37
2022-12-15T19:24:57.007Z,33.13
2022-12-15T19:27:26.466Z,30.30
2022-12-15T19:29:54.214Z,38.03
2022-12-15T19:32:23.592Z,35.23
2022-12-15T19:34:51.152Z,35.27
2022-12-15T19:37:23.500Z,31.30
2022-12-15T19:39:51.201Z,31.70
2022-12-15T19:42:19.642Z,30.33
2022-12-15T19:44:47.134Z,28.40
2022-12-15T19:47:15.041Z,27.93
2022-12-15T19:49:44.121Z,29.97
2022-12-15T19:52:14.027Z,30.87
2022-12-15T19:54:41.899Z,29.10
2022-12-15T19:57:12.330Z,29.90
2022-12-15T19:59:39.825Z,27.67
2022-12-15T20:02:07.996Z,27.20
2022-12-15T20:04:35.535Z,27.90
2022-12-15T20:07:04.947Z,29.57
2022-12-15T20:09:32.757Z,27.83
2022-12-15T20:12:00.233Z,29.47
2022-12-15T20:14:28.011Z,30.63
2022-12-15T20:16:55.511Z,29.67
2022-12-15T20:19:23.231Z,32.47
2022-12-15T20:21:51.391Z,26.87
2022-12-15T20:24:20.638Z,29.63
2022-12-15T20:26:48.120Z,26.27
2022-12-15T20:29:21.521Z,30.30
2022-12-15T20:31:49.193Z,26.47
2022-12-15T20:34:16.786Z,29.57
2022-12-15T20:36:44.349Z,28.27
2022-12-15T20:39:20.321Z,29.67
2022-12-15T20:41:49.199Z,34.33
2022-12-15T20:44:16.681Z,26.00
2022-12-15T20:46:44.294Z,29.17
2022-12-15T20:49:15.555Z,30.43
2022-12-15T20:51:43.265Z,27.00
2022-12-15T20:54:15.406Z,28.30
2022-12-15T20:56:43.350Z,28.60
2022-12-15T20:59:12.771Z,34.20
2022-12-15T21:01:40.929Z,38.10
2022-12-15T21:04:17.532Z,32.37
2022-12-15T21:06:47.616Z,35.50
2022-12-15T21:09:20.481Z,31.30
2022-12-15T21:11:48.146Z,29.93
2022-12-15T21:14:18.225Z,27.40
2022-12-15T21:16:45.929Z,29.73
2022-12-15T21:19:21.982Z,30.13
2022-12-15T21:21:51.695Z,27.47
2022-12-15T21:24:20.671Z,29.33
2022-12-15T21:26:48.134Z,29.27
2022-12-15T21:29:17.705Z,28.10
2022-12-15T21:31:45.494Z,27.33
2022-12-15T21:34:13.026Z,23.90
2022-12-15T21:36:41.360Z,24.60
2022-12-15T21:39:11.586Z,23.97
2022-12-15T21:41:40.663Z,24.00
2022-12-15T21:44:11.109Z,26.07
2022-12-15T21:46:39.960Z,25.90
2022-12-15T21:49:15.536Z,26.63
2022-12-15T21:51:44.385Z,27.80
2022-12-15T21:54:15.743Z,27.10
2022-12-15T21:56:43.167Z,24.57
2022-12-15T21:59:12.613Z,24.47
2022-12-15T22:01:41.668Z,25.57
2022-12-15T22:04:16.209Z,25.10
2022-12-15T22:06:48.658Z,25.63
2022-12-15T22:09:18.395Z,25.00
2022-12-15T22:11:46.938Z,25.70
2022-12-15T22:14:17.130Z,23.50
2022-12-15T22:16:45.930Z,23.30
2022-12-15T22:19:13.691Z,23.93
2022-12-15T22:21:42.487Z,25.17
2022-12-15T22:24:10.151Z,25.77
2022-12-15T22:26:38.256Z,26.70
2022-12-15T22:29:12.337Z,22.70
2022-12-15T22:31:39.760Z,28.63
2022-12-15T22:34:13.239Z,27.27
2022-12-15T22:36:40.683Z,26.17
2022-12-15T22:39:10.757Z,26.77
2022-12-15T22:41:39.908Z,26.40
2022-12-15T22:44:11.790Z,24.10
2022-12-15T22:46:39.399Z,26.80
2022-12-15T22:49:06.910Z,23.77
2022-12-15T22:51:35.898Z,22.97
2022-12-15T22:54:03.415Z,22.97
2022-12-15T22:56:35.337Z,22.53
2022-12-15T22:59:04.430Z,22.33
2022-12-15T23:01:32.193Z,25.27
2022-12-15T23:03:59.638Z,22.80
2022-12-15T23:06:27.872Z,22.10
2022-12-15T23:08:56.635Z,21.97
2022-12-15T23:11:38.953Z,21.47
2022-12-15T23:14:07.025Z,24.93
2022-12-15T23:16:33.943Z,21.70
2022-12-15T23:19:01.529Z,21.40
2022-12-15T23:21:28.987Z,20.47
2022-12-15T23:23:58.543Z,21.43
2022-12-15T23:26:26.517Z,22.73
2022-12-15T23:28:55.194Z,21.80
2022-12-15T23:31:23.010Z,24.10
2022-12-15T23:33:52.096Z,18.67
2022-12-15T23:36:19.879Z,21.80
2022-12-15T23:38:47.369Z,22.67
2022-12-15T23:41:17.618Z,23.87
2022-12-15T23:43:45.335Z,27.10
2022-12-15T23:46:13.064Z,25.73
2022-12-15T23:48:41.454Z,24.80
2022-12-15T23:51:10.109Z,23.63
2022-12-15T23:53:38.006Z,28.73
2022-12-15T23:56:08.092Z,28.83
2022-12-15T23:58:36.929Z,29.80
